Wetterstation Vordersexau
Wetterdaten: Woche 17.11.14 - 23.11.14 (KW47)
Datum Zeit Temp. A. Feuchte A. Luftdruck Regen Wind Richtung Taupunkt Windchill Windben
17.11.2014 00:00 7,3 C 85 % 974,7 hPa 0,0 l/m 0,0 km/h O-SO 4,9 C 7,3 C 0,0 km/h
17.11.2014 01:00 7,1 C 85 % 974,8 hPa 0,2 l/m 0,0 km/h SO 4,8 C 7,1 C 0,0 km/h
17.11.2014 02:00 7,3 C 85 % 975,2 hPa 0,0 l/m 0,0 km/h SO 4,9 C 7,3 C 0,0 km/h
17.11.2014 03:00 7,9 C 86 % 974,5 hPa 0,0 l/m 4,0 km/h SO 5,7 C 7,9 C 4,0 km/h
17.11.2014 04:00 8,3 C 85 % 974,8 hPa 0,0 l/m 4,7 km/h O-SO 5,9 C 8,3 C 4,7 km/h
17.11.2014 05:00 7,8 C 86 % 974,9 hPa 0,4 l/m 12,3 km/h O-SO 5,6 C 3,8 C 6,8 km/h
17.11.2014 06:00 7,4 C 86 % 975,3 hPa 0,0 l/m 7,1 km/h O-SO 5,2 C 6,8 C 4,0 km/h
17.11.2014 07:00 7,4 C 86 % 975,7 hPa 0,0 l/m 9,7 km/h SO 5,2 C 4,9 C 5,4 km/h
17.11.2014 08:00 7,2 C 86 % 975,9 hPa 0,2 l/m 0,0 km/h SO 5,0 C 7,2 C 0,0 km/h
17.11.2014 09:00 7,9 C 86 % 975,8 hPa 0,2 l/m 0,0 km/h SO 5,7 C 7,9 C 0,0 km/h
17.11.2014 10:00 8,9 C 85 % 975,7 hPa 0,0 l/m 0,0 km/h SO 6,5 C 8,9 C 0,0 km/h
17.11.2014 11:00 11,3 C 86 % 975,0 hPa 0,0 l/m 0,0 km/h S 9,0 C 11,3 C 0,0 km/h
17.11.2014 12:00 11,6 C 84 % 974,8 hPa 0,0 l/m 0,0 km/h SW 9,0 C 11,6 C 0,0 km/h
17.11.2014 13:00 12,5 C 82 % 974,9 hPa 0,0 l/m 0,0 km/h SW 9,5 C 12,5 C 0,0 km/h
17.11.2014 14:00 12,1 C 80 % 974,9 hPa 0,0 l/m 0,0 km/h SW 8,8 C 12,1 C 0,0 km/h
17.11.2014 15:00 10,6 C 82 % 975,1 hPa 0,0 l/m 0,0 km/h SW 7,7 C 10,6 C 0,0 km/h
17.11.2014 16:00 8,7 C 84 % 975,2 hPa 0,0 l/m 0,0 km/h SW 6,2 C 8,7 C 0,0 km/h
17.11.2014 17:00 8,1 C 86 % 975,6 hPa 0,0 l/m 0,0 km/h SW 5,9 C 8,1 C 0,0 km/h
17.11.2014 18:00 8,1 C 86 % 976,1 hPa 0,0 l/m 0,0 km/h SW 5,9 C 8,1 C 0,0 km/h
17.11.2014 19:00 7,9 C 86 % 976,6 hPa 0,4 l/m 0,0 km/h SW 5,7 C 7,9 C 0,0 km/h
17.11.2014 20:00 7,9 C 86 % 976,8 hPa 0,2 l/m 0,0 km/h SW 5,7 C 7,9 C 0,0 km/h
17.11.2014 21:00 7,9 C 86 % 977,0 hPa 0,0 l/m 0,0 km/h SW 5,7 C 7,9 C 0,0 km/h
17.11.2014 22:00 7,7 C 86 % 977,1 hPa 0,2 l/m 0,0 km/h W-SW 5,5 C 7,7 C 0,0 km/h
17.11.2014 23:00 7,8 C 85 % 977,3 hPa 0,0 l/m 0,0 km/h W-SW 5,4 C 7,8 C 0,0 km/h
18.11.2014 00:00 7,2 C 84 % 977,3 hPa 0,0 l/m 0,0 km/h W-SW 4,7 C 7,2 C 0,0 km/h
18.11.2014 01:00 6,9 C 84 % 977,4 hPa 0,0 l/m 0,0 km/h W-SW 4,4 C 6,9 C 0,0 km/h
18.11.2014 02:00 6,9 C 84 % 977,6 hPa 0,0 l/m 0,0 km/h W-SW 4,4 C 6,9 C 0,0 km/h
18.11.2014 03:00 7,2 C 84 % 977,5 hPa 0,0 l/m 0,0 km/h W-SW 4,7 C 7,2 C 0,0 km/h
18.11.2014 04:00 7,3 C 83 % 977,8 hPa 0,2 l/m 0,0 km/h W-SW 4,6 C 7,3 C 0,0 km/h
18.11.2014 05:00 7,1 C 83 % 977,7 hPa 0,2 l/m 0,0 km/h W-SW 4,4 C 7,1 C 0,0 km/h
18.11.2014 06:00 6,9 C 83 % 977,9 hPa 0,0 l/m 0,0 km/h W-SW 4,2 C 6,9 C 0,0 km/h
18.11.2014 07:00 6,7 C 83 % 978,3 hPa 0,0 l/m 0,0 km/h W-SW 4,0 C 6,7 C 0,0 km/h
18.11.2014 08:00 7,0 C 82 % 978,7 hPa 0,0 l/m 0,0 km/h W-SW 4,1 C 7,0 C 0,0 km/h
18.11.2014 09:00 8,2 C 82 % 978,9 hPa 0,0 l/m 0,0 km/h W-SW 5,3 C 8,2 C 0,0 km/h
18.11.2014 10:00 10,8 C 82 % 979,2 hPa 0,0 l/m 0,0 km/h SW 7,9 C 10,8 C 0,0 km/h
18.11.2014 11:00 13,2 C 85 % 979,1 hPa 0,0 l/m 0,0 km/h W 10,7 C 13,2 C 0,0 km/h
18.11.2014 12:00 10,9 C 82 % 978,9 hPa 0,0 l/m 0,0 km/h S-SW 7,9 C 10,9 C 0,0 km/h
18.11.2014 13:00 15,4 C 68 % 979,0 hPa 0,0 l/m 6,5 km/h W-SW 9,5 C 15,4 C 3,6 km/h
18.11.2014 14:00 13,6 C 66 % 979,2 hPa 0,0 l/m 3,2 km/h SW 7,4 C 13,6 C 1,8 km/h
18.11.2014 15:00 10,2 C 78 % 979,3 hPa 0,0 l/m 0,0 km/h SW 6,5 C 10,2 C 0,0 km/h
18.11.2014 16:00 9,2 C 81 % 979,7 hPa 0,0 l/m 0,0 km/h S-SO 6,1 C 9,2 C 0,0 km/h
18.11.2014 17:00 8,3 C 85 % 980,4 hPa 0,0 l/m 0,0 km/h S-SO 5,9 C 8,3 C 0,0 km/h
18.11.2014 18:00 7,4 C 86 % 981,0 hPa 0,0 l/m 0,0 km/h N-NO 5,2 C 7,4 C 0,0 km/h
18.11.2014 19:00 7,9 C 86 % 981,7 hPa 0,0 l/m 0,0 km/h S 5,7 C 7,9 C 0,0 km/h
18.11.2014 20:00 7,9 C 86 % 982,1 hPa 0,0 l/m 0,0 km/h S 5,7 C 7,9 C 0,0 km/h
18.11.2014 21:00 7,7 C 86 % 982,4 hPa 0,0 l/m 0,0 km/h S 5,5 C 7,7 C 0,0 km/h
18.11.2014 22:00 7,6 C 86 % 983,0 hPa 0,0 l/m 0,0 km/h S 5,4 C 7,6 C 0,0 km/h
18.11.2014 23:00 7,1 C 86 % 983,5 hPa 0,0 l/m 0,0 km/h S 4,9 C 7,1 C 0,0 km/h
19.11.2014 00:00 6,9 C 86 % 983,6 hPa 0,0 l/m 0,0 km/h S 4,7 C 6,9 C 0,0 km/h
19.11.2014 01:00 6,8 C 86 % 983,9 hPa 0,0 l/m 0,0 km/h S 4,6 C 6,8 C 0,0 km/h
19.11.2014 02:00 6,6 C 85 % 984,4 hPa 0,0 l/m 0,0 km/h S 4,3 C 6,6 C 0,0 km/h
19.11.2014 03:00 6,6 C 85 % 985,1 hPa 0,0 l/m 0,0 km/h S 4,3 C 6,6 C 0,0 km/h
19.11.2014 04:00 5,5 C 85 % 985,5 hPa 0,0 l/m 0,0 km/h S 3,2 C 5,5 C 0,0 km/h
19.11.2014 05:00 5,9 C 85 % 986,6 hPa 0,0 l/m 0,0 km/h S 3,6 C 5,9 C 0,0 km/h
19.11.2014 06:00 5,8 C 85 % 987,1 hPa 0,0 l/m 0,0 km/h S 3,5 C 5,8 C 0,0 km/h
19.11.2014 07:00 5,9 C 84 % 987,8 hPa 0,0 l/m 0,0 km/h S 3,4 C 5,9 C 0,0 km/h
19.11.2014 08:00 7,3 C 81 % 989,0 hPa 0,0 l/m 0,0 km/h S-SO 4,3 C 7,3 C 0,0 km/h
19.11.2014 09:00 9,5 C 82 % 989,7 hPa 0,0 l/m 0,0 km/h W-SW 6,6 C 9,5 C 0,0 km/h
19.11.2014 10:00 18,6 C 70 % 990,3 hPa 0,0 l/m 0,0 km/h W 13,0 C 18,6 C 0,0 km/h
19.11.2014 11:00 16,2 C 64 % 990,3 hPa 0,0 l/m 0,0 km/h W 9,4 C 16,2 C 0,0 km/h
19.11.2014 12:00 11,6 C 76 % 990,6 hPa 0,0 l/m 0,0 km/h W 7,5 C 11,6 C 0,0 km/h
19.11.2014 13:00 13,3 C 72 % 990,6 hPa 0,0 l/m 0,0 km/h NW 8,4 C 13,3 C 0,0 km/h
19.11.2014 14:00 16,9 C 59 % 991,1 hPa 0,0 l/m 0,0 km/h NW 8,8 C 16,9 C 0,0 km/h
19.11.2014 15:00 10,9 C 72 % 991,6 hPa 0,0 l/m 0,0 km/h NW 6,1 C 10,9 C 0,0 km/h
19.11.2014 16:00 7,2 C 80 % 992,1 hPa 0,0 l/m 0,0 km/h SO 4,0 C 7,2 C 0,0 km/h
19.11.2014 17:00 5,7 C 84 % 992,8 hPa 0,0 l/m 0,0 km/h SO 3,2 C 5,7 C 0,0 km/h
19.11.2014 18:00 5,2 C 86 % 993,1 hPa 0,0 l/m 0,0 km/h O 3,1 C 5,2 C 0,0 km/h
19.11.2014 19:00 4,8 C 86 % 993,5 hPa 0,0 l/m 0,0 km/h SO 2,7 C 4,8 C 0,0 km/h
19.11.2014 20:00 4,5 C 86 % 994,0 hPa 0,0 l/m 0,0 km/h O-SO 2,4 C 4,5 C 0,0 km/h
19.11.2014 21:00 3,5 C 86 % 994,5 hPa 0,0 l/m 0,0 km/h O-SO 1,4 C 3,5 C 0,0 km/h
19.11.2014 22:00 2,8 C 86 % 994,5 hPa 0,0 l/m 0,0 km/h O-SO 0,7 C 2,8 C 0,0 km/h
19.11.2014 23:00 1,9 C 86 % 994,6 hPa 0,0 l/m 0,0 km/h O-SO -0,2 C 1,9 C 0,0 km/h
20.11.2014 00:00 1,3 C 86 % 994,7 hPa 0,0 l/m 0,0 km/h O-SO -0,8 C 1,3 C 0,0 km/h
20.11.2014 01:00 1,3 C 86 % 994,6 hPa 0,0 l/m 0,0 km/h O-SO -0,8 C 1,3 C 0,0 km/h
20.11.2014 02:00 1,0 C 86 % 995,1 hPa 0,0 l/m 0,0 km/h O-SO -1,1 C 1,0 C 0,0 km/h
20.11.2014 03:00 1,4 C 85 % 994,6 hPa 0,0 l/m 0,0 km/h O -0,8 C 1,4 C 0,0 km/h
20.11.2014 04:00 0,9 C 85 % 995,2 hPa 0,0 l/m 0,0 km/h O -1,3 C 0,9 C 0,0 km/h
20.11.2014 05:00 0,6 C 85 % 994,8 hPa 0,0 l/m 0,0 km/h N-NO -1,6 C 0,6 C 0,0 km/h
20.11.2014 06:00 1,9 C 84 % 995,2 hPa 0,0 l/m 0,0 km/h N-NO -0,5 C 1,9 C 0,0 km/h
20.11.2014 07:00 2,3 C 84 % 995,2 hPa 0,0 l/m 0,0 km/h N-NO -0,1 C 2,3 C 0,0 km/h
20.11.2014 08:00 3,0 C 83 % 995,2 hPa 0,0 l/m 0,0 km/h N-NO 0,4 C 3,0 C 0,0 km/h
20.11.2014 09:00 3,8 C 82 % 995,0 hPa 0,0 l/m 0,0 km/h W 1,0 C 3,8 C 0,0 km/h
20.11.2014 10:00 3,9 C 82 % 995,8 hPa 0,0 l/m 0,0 km/h S-SO 1,1 C 3,9 C 0,0 km/h
20.11.2014 11:00 4,5 C 81 % 994,9 hPa 0,0 l/m 0,0 km/h NW 1,5 C 4,5 C 0,0 km/h
20.11.2014 12:00 4,7 C 82 % 995,1 hPa 0,0 l/m 0,0 km/h W-NW 1,9 C 4,7 C 0,0 km/h
20.11.2014 13:00 4,8 C 82 % 994,6 hPa 0,0 l/m 0,0 km/h W-NW 2,0 C 4,8 C 0,0 km/h
20.11.2014 14:00 4,9 C 83 % 994,5 hPa 0,0 l/m 0,0 km/h W-NW 2,3 C 4,9 C 0,0 km/h
20.11.2014 15:00 4,8 C 83 % 994,1 hPa 0,0 l/m 0,0 km/h W 2,2 C 4,8 C 0,0 km/h
20.11.2014 16:00 4,7 C 83 % 994,7 hPa 0,0 l/m 0,0 km/h W 2,1 C 4,7 C 0,0 km/h
20.11.2014 17:00 4,6 C 83 % 994,4 hPa 0,0 l/m 0,0 km/h W 2,0 C 4,6 C 0,0 km/h
20.11.2014 18:00 4,6 C 82 % 994,3 hPa 0,0 l/m 0,0 km/h S 1,8 C 4,6 C 0,0 km/h
20.11.2014 19:00 4,7 C 82 % 994,4 hPa 0,0 l/m 0,0 km/h S 1,9 C 4,7 C 0,0 km/h
20.11.2014 20:00 4,6 C 82 % 994,3 hPa 0,0 l/m 0,0 km/h S 1,8 C 4,6 C 0,0 km/h
20.11.2014 21:00 4,6 C 82 % 994,6 hPa 0,0 l/m 0,0 km/h S 1,8 C 4,6 C 0,0 km/h
20.11.2014 22:00 4,7 C 82 % 994,4 hPa 0,0 l/m 0,0 km/h SW 1,9 C 4,7 C 0,0 km/h
20.11.2014 23:00 4,8 C 82 % 994,4 hPa 0,0 l/m 0,0 km/h SW 2,0 C 4,8 C 0,0 km/h
21.11.2014 00:00 4,8 C 82 % 993,8 hPa 0,0 l/m 0,0 km/h S-SW 2,0 C 4,8 C 0,0 km/h
21.11.2014 01:00 4,7 C 81 % 993,5 hPa 0,0 l/m 0,0 km/h S-SW 1,7 C 4,7 C 0,0 km/h
21.11.2014 02:00 4,8 C 82 % 993,2 hPa 0,0 l/m 0,0 km/h S-SW 2,0 C 4,8 C 0,0 km/h
21.11.2014 03:00 4,6 C 81 % 992,7 hPa 0,0 l/m 0,0 km/h S-SW 1,6 C 4,6 C 0,0 km/h
21.11.2014 04:00 4,7 C 81 % 992,6 hPa 0,0 l/m 0,0 km/h S-SW 1,7 C 4,7 C 0,0 km/h
21.11.2014 05:00 4,8 C 81 % 992,6 hPa 0,0 l/m 0,0 km/h S-SW 1,8 C 4,8 C 0,0 km/h
21.11.2014 06:00 4,6 C 81 % 992,1 hPa 0,0 l/m 0,0 km/h S-SW 1,6 C 4,6 C 0,0 km/h
21.11.2014 07:00 4,5 C 81 % 992,1 hPa 0,0 l/m 0,0 km/h S-SW 1,5 C 4,5 C 0,0 km/h
21.11.2014 08:00 5,5 C 80 % 992,0 hPa 0,0 l/m 0,0 km/h S 2,3 C 5,5 C 0,0 km/h
21.11.2014 09:00 9,2 C 83 % 991,8 hPa 0,0 l/m 0,0 km/h W 6,5 C 9,2 C 0,0 km/h
21.11.2014 10:00 9,2 C 85 % 992,3 hPa 0,0 l/m 0,0 km/h W 6,8 C 9,2 C 0,0 km/h
21.11.2014 11:00 10,8 C 82 % 991,5 hPa 0,0 l/m 0,0 km/h W-NW 7,9 C 10,8 C 0,0 km/h
21.11.2014 12:00 10,4 C 81 % 991,4 hPa 0,0 l/m 0,0 km/h W-NW 7,3 C 10,4 C 0,0 km/h
21.11.2014 13:00 9,2 C 83 % 991,2 hPa 0,0 l/m 0,0 km/h W-NW 6,5 C 9,2 C 0,0 km/h
21.11.2014 14:00 9,6 C 83 % 990,8 hPa 0,0 l/m 0,0 km/h W-NW 6,9 C 9,6 C 0,0 km/h
21.11.2014 15:00 9,0 C 84 % 990,7 hPa 0,0 l/m 0,0 km/h W-NW 6,4 C 9,0 C 0,0 km/h
21.11.2014 16:00 7,9 C 86 % 990,5 hPa 0,0 l/m 0,0 km/h W-NW 5,7 C 7,9 C 0,0 km/h
21.11.2014 17:00 7,4 C 86 % 990,7 hPa 0,0 l/m 0,0 km/h W-NW 5,2 C 7,4 C 0,0 km/h
21.11.2014 18:00 6,9 C 86 % 990,6 hPa 0,0 l/m 0,0 km/h W-NW 4,7 C 6,9 C 0,0 km/h
21.11.2014 19:00 6,4 C 86 % 990,5 hPa 0,0 l/m 0,0 km/h W-NW 4,2 C 6,4 C 0,0 km/h
21.11.2014 20:00 5,5 C 86 % 990,6 hPa 0,0 l/m 0,0 km/h W-NW 3,3 C 5,5 C 0,0 km/h
21.11.2014 21:00 4,7 C 87 % 990,9 hPa 0,0 l/m 0,0 km/h W-NW 2,7 C 4,7 C 0,0 km/h
21.11.2014 22:00 4,3 C 86 % 991,1 hPa 0,0 l/m 0,0 km/h W-NW 2,2 C 4,3 C 0,0 km/h
21.11.2014 23:00 4,2 C 86 % 990,6 hPa 0,0 l/m 0,0 km/h W-NW 2,1 C 4,2 C 0,0 km/h
22.11.2014 00:00 3,4 C 86 % 990,8 hPa 0,0 l/m 0,0 km/h W-NW 1,3 C 3,4 C 0,0 km/h
22.11.2014 01:00 3,6 C 85 % 990,5 hPa 0,0 l/m 0,0 km/h W-NW 1,3 C 3,6 C 0,0 km/h
22.11.2014 02:00 3,3 C 85 % 990,7 hPa 0,0 l/m 0,0 km/h W-NW 1,0 C 3,3 C 0,0 km/h
22.11.2014 03:00 3,2 C 84 % 990,4 hPa 0,0 l/m 0,0 km/h W-NW 0,8 C 3,2 C 0,0 km/h
22.11.2014 04:00 3,3 C 84 % 990,5 hPa 0,0 l/m 0,0 km/h W-NW 0,9 C 3,3 C 0,0 km/h
22.11.2014 05:00 2,9 C 84 % 991,1 hPa 0,0 l/m 0,0 km/h W-NW 0,5 C 2,9 C 0,0 km/h
22.11.2014 06:00 2,3 C 84 % 990,7 hPa 0,0 l/m 0,0 km/h W-NW -0,1 C 2,3 C 0,0 km/h
22.11.2014 07:00 3,2 C 84 % 990,8 hPa 0,0 l/m 0,0 km/h W-NW 0,8 C 3,2 C 0,0 km/h
22.11.2014 08:00 4,0 C 82 % 991,3 hPa 0,0 l/m 0,0 km/h W-NW 1,2 C 4,0 C 0,0 km/h
22.11.2014 09:00 5,3 C 81 % 991,8 hPa 0,0 l/m 0,0 km/h W-NW 2,3 C 5,3 C 0,0 km/h
22.11.2014 10:00 8,7 C 82 % 991,6 hPa 0,0 l/m 0,0 km/h NW 5,8 C 8,7 C 0,0 km/h
22.11.2014 11:00 11,4 C 86 % 991,0 hPa 0,0 l/m 0,0 km/h W-NW 9,1 C 11,4 C 0,0 km/h
22.11.2014 12:00 10,3 C 85 % 991,0 hPa 0,0 l/m 0,0 km/h N-NW 7,9 C 10,3 C 0,0 km/h
22.11.2014 13:00 11,8 C 83 % 990,5 hPa 0,0 l/m 0,0 km/h W-NW 9,0 C 11,8 C 0,0 km/h
22.11.2014 14:00 9,6 C 84 % 990,3 hPa 0,0 l/m 0,0 km/h W-NW 7,0 C 9,6 C 0,0 km/h
22.11.2014 15:00 7,9 C 86 % 990,4 hPa 0,0 l/m 0,0 km/h W-NW 5,7 C 7,9 C 0,0 km/h
22.11.2014 16:00 7,1 C 86 % 990,7 hPa 0,0 l/m 0,0 km/h W-NW 4,9 C 7,1 C 0,0 km/h
22.11.2014 17:00 6,6 C 85 % 990,8 hPa 0,0 l/m 0,0 km/h W-NW 4,3 C 6,6 C 0,0 km/h
22.11.2014 18:00 6,4 C 85 % 991,0 hPa 0,0 l/m 0,0 km/h W-NW 4,1 C 6,4 C 0,0 km/h
22.11.2014 19:00 5,9 C 84 % 991,6 hPa 0,0 l/m 0,0 km/h W-NW 3,4 C 5,9 C 0,0 km/h
22.11.2014 20:00 5,9 C 84 % 991,6 hPa 0,0 l/m 0,0 km/h W-NW 3,4 C 5,9 C 0,0 km/h
22.11.2014 21:00 5,9 C 84 % 991,9 hPa 0,0 l/m 0,0 km/h W-NW 3,4 C 5,9 C 0,0 km/h
22.11.2014 22:00 5,8 C 84 % 992,1 hPa 0,0 l/m 0,0 km/h W-NW 3,3 C 5,8 C 0,0 km/h
22.11.2014 23:00 5,6 C 83 % 992,5 hPa 0,0 l/m 0,0 km/h W 2,9 C 5,6 C 0,0 km/h
23.11.2014 00:00 5,6 C 82 % 992,1 hPa 0,0 l/m 0,0 km/h W 2,8 C 5,6 C 0,0 km/h
23.11.2014 01:00 5,0 C 83 % 992,1 hPa 0,0 l/m 0,0 km/h W-NW 2,4 C 5,0 C 0,0 km/h
23.11.2014 02:00 4,7 C 83 % 992,3 hPa 0,0 l/m 0,0 km/h W-NW 2,1 C 4,7 C 0,0 km/h
23.11.2014 03:00 4,3 C 83 % 992,0 hPa 0,0 l/m 0,0 km/h W-NW 1,7 C 4,3 C 0,0 km/h
23.11.2014 04:00 3,1 C 83 % 991,8 hPa 0,2 l/m 0,0 km/h W-NW 0,5 C 3,1 C 0,0 km/h
23.11.2014 05:00 2,8 C 83 % 991,6 hPa 0,0 l/m 0,0 km/h W-NW 0,2 C 2,8 C 0,0 km/h
23.11.2014 06:00 3,6 C 82 % 991,8 hPa 0,0 l/m 0,0 km/h W-NW 0,8 C 3,6 C 0,0 km/h
23.11.2014 07:00 3,8 C 82 % 991,7 hPa 0,0 l/m 0,0 km/h W-NW 1,0 C 3,8 C 0,0 km/h
23.11.2014 08:00 4,8 C 80 % 992,1 hPa 0,0 l/m 0,0 km/h W-NW 1,6 C 4,8 C 0,0 km/h
23.11.2014 09:00 5,4 C 80 % 992,5 hPa 0,0 l/m 0,0 km/h S 2,2 C 5,4 C 0,0 km/h
23.11.2014 10:00 6,1 C 79 % 992,8 hPa 0,0 l/m 0,0 km/h S-SO 2,7 C 6,1 C 0,0 km/h
23.11.2014 11:00 9,1 C 79 % 992,0 hPa 0,0 l/m 0,0 km/h W 5,7 C 9,1 C 0,0 km/h
23.11.2014 12:00 12,2 C 86 % 991,2 hPa 0,0 l/m 0,0 km/h W-NW 9,9 C 12,2 C 0,0 km/h
23.11.2014 13:00 9,6 C 86 % 990,6 hPa 0,0 l/m 0,0 km/h W-NW 7,4 C 9,6 C 0,0 km/h
23.11.2014 14:00 10,1 C 86 % 990,2 hPa 0,0 l/m 0,0 km/h W-NW 7,9 C 10,1 C 0,0 km/h
23.11.2014 15:00 8,3 C 86 % 989,8 hPa 0,0 l/m 0,0 km/h W-NW 6,1 C 8,3 C 0,0 km/h
23.11.2014 16:00 7,2 C 86 % 989,7 hPa 0,0 l/m 0,0 km/h W-NW 5,0 C 7,2 C 0,0 km/h
23.11.2014 17:00 5,6 C 86 % 989,7 hPa 0,0 l/m 0,0 km/h W-NW 3,4 C 5,6 C 0,0 km/h
23.11.2014 18:00 5,9 C 86 % 989,8 hPa 0,0 l/m 0,0 km/h W-NW 3,7 C 5,9 C 0,0 km/h
23.11.2014 19:00 5,5 C 85 % 989,7 hPa 0,0 l/m 0,0 km/h W-NW 3,2 C 5,5 C 0,0 km/h
23.11.2014 20:00 6,2 C 85 % 989,8 hPa 0,0 l/m 0,0 km/h W-NW 3,9 C 6,2 C 0,0 km/h
23.11.2014 21:00 5,9 C 84 % 990,0 hPa 0,0 l/m 0,0 km/h W-NW 3,4 C 5,9 C 0,0 km/h
23.11.2014 22:00 5,9 C 84 % 990,3 hPa 0,0 l/m 0,0 km/h W-NW 3,4 C 5,9 C 0,0 km/h
23.11.2014 23:00 6,5 C 83 % 990,3 hPa 0,0 l/m 0,0 km/h W-NW 3,8 C 6,5 C 0,0 km/h
Min-Datum _ 20.11.14 19.11.14 17.11.14 - 17.11.14 - 20.11.14 20.11.14 17.11.14
_ Min-Zeit 05:53 14:53 03:53 - 00:53 - 05:53 05:53 00:53
Minimum _ 0,6 C 59 % 974,5 hPa - 0,0 km/h - -1,6 C 0,6 C 0,0 km/h
Max-Datum _ 19.11.14 21.11.14 20.11.14 17.11.14 17.11.14 - 19.11.14 19.11.14 17.11.14
_ Max-Zeit 10:53 21:53 10:53 05:53 05:53 - 10:53 10:53 05:53
Maximum _ 18,6 C 87 % 995,8 hPa 0,4 l/m 12,3 km/h
O-SO
- 13,0 C 18,6 C 6,8 km/h
O-SO
Durchschnitt _ 6,8 C 83 % 987,6 hPa #2,5 l/m 0,3 km/h W-NW 4,1 C 6,7 C 0,2 km/h
www.sexauwetter.de